Cleveland, Ohio
Traffic Map
Current Weather Conditions
Cleveland, Ohio
Clear
Clear
69°
Feels Like: 69°
Wind Chill: 69° Ceiling: Unl
Heat Index: 69° Visibility: 10mi
Dew Point: 60° Wind: 3mph
Humidity: 73% Direction: 200° (SSW)
Pressure: 29.93in Gusts: 0mph
Raw Report DataKBKL 030153Z 20003KT 10SM CLR 21/16 A2993 RMK AO2 SLP133 T02060156
Traffic Incident Summary
Active as of:
Severity:
Category:
InformationThere was an issue retrieving the traffic information for this location. Please try a different location or try again shortly.
Advertisements
Track Severe Weather on mobile